sensor_id;sensor_type;location;lat;lon;timestamp;P1;durP1;ratioP1;P2;durP2;ratioP2
31238;SDS011;17871;31.584;74.450;2023-05-15T00:00:31;62.95;;;20.00;;
31238;SDS011;17871;31.584;74.450;2023-05-15T00:03:04;66.00;;;21.08;;
31238;SDS011;17871;31.584;74.450;2023-05-15T00:08:08;106.32;;;24.27;;
31238;SDS011;17871;31.584;74.450;2023-05-15T00:10:41;88.75;;;20.90;;
31238;SDS011;17871;31.584;74.450;2023-05-15T00:13:27;93.65;;;22.67;;
31238;SDS011;17871;31.584;74.450;2023-05-15T00:15:59;89.18;;;21.17;;
31238;SDS011;17871;31.584;74.450;2023-05-15T00:18:32;90.78;;;21.02;;
31238;SDS011;17871;31.584;74.450;2023-05-15T00:23:35;107.28;;;25.40;;
31238;SDS011;17871;31.584;74.450;2023-05-15T00:26:07;87.88;;;26.05;;
31238;SDS011;17871;31.584;74.450;2023-05-15T00:28:40;90.70;;;30.55;;
31238;SDS011;17871;31.584;74.450;2023-05-15T00:31:13;98.45;;;37.85;;
31238;SDS011;17871;31.584;74.450;2023-05-15T00:33:45;117.03;;;44.83;;
31238;SDS011;17871;31.584;74.450;2023-05-15T00:36:18;100.65;;;42.92;;
31238;SDS011;17871;31.584;74.450;2023-05-15T00:38:51;133.27;;;46.08;;
31238;SDS011;17871;31.584;74.450;2023-05-15T00:41:23;135.50;;;45.58;;
31238;SDS011;17871;31.584;74.450;2023-05-15T00:43:57;119.32;;;45.35;;
31238;SDS011;17871;31.584;74.450;2023-05-15T00:46:32;109.03;;;43.88;;
31238;SDS011;17871;31.584;74.450;2023-05-15T00:49:06;133.23;;;49.42;;
31238;SDS011;17871;31.584;74.450;2023-05-15T00:51:42;140.52;;;53.47;;
31238;SDS011;17871;31.584;74.450;2023-05-15T00:54:14;151.10;;;57.85;;
31238;SDS011;17871;31.584;74.450;2023-05-15T00:56:48;154.85;;;61.85;;
31238;SDS011;17871;31.584;74.450;2023-05-15T00:59:20;191.27;;;69.57;;
31238;SDS011;17871;31.584;74.450;2023-05-15T01:01:56;170.93;;;66.40;;
31238;SDS011;17871;31.584;74.450;2023-05-15T01:04:28;156.23;;;62.15;;
31238;SDS011;17871;31.584;74.450;2023-05-15T01:07:01;178.68;;;68.43;;
31238;SDS011;17871;31.584;74.450;2023-05-15T01:09:33;156.90;;;65.18;;
31238;SDS011;17871;31.584;74.450;2023-05-15T01:12:08;180.50;;;76.18;;
31238;SDS011;17871;31.584;74.450;2023-05-15T01:14:42;194.07;;;88.78;;
31238;SDS011;17871;31.584;74.450;2023-05-15T01:17:15;191.18;;;83.72;;
31238;SDS011;17871;31.584;74.450;2023-05-15T01:19:46;207.77;;;88.83;;
31238;SDS011;17871;31.584;74.450;2023-05-15T01:22:40;207.05;;;84.47;;
31238;SDS011;17871;31.584;74.450;2023-05-15T01:28:17;189.15;;;72.53;;
31238;SDS011;17871;31.584;74.450;2023-05-15T01:30:56;157.20;;;63.80;;
31238;SDS011;17871;31.584;74.450;2023-05-15T01:33:37;190.45;;;75.28;;
31238;SDS011;17871;31.584;74.450;2023-05-15T01:36:15;211.13;;;84.15;;
31238;SDS011;17871;31.584;74.450;2023-05-15T01:39:05;266.88;;;106.80;;
31238;SDS011;17871;31.584;74.450;2023-05-15T01:41:45;258.67;;;113.90;;
31238;SDS011;17871;31.584;74.450;2023-05-15T01:44:49;138.55;;;57.17;;
31238;SDS011;17871;31.584;74.450;2023-05-15T01:47:27;73.63;;;30.48;;
31238;SDS011;17871;31.584;74.450;2023-05-15T01:50:04;60.17;;;25.30;;
31238;SDS011;17871;31.584;74.450;2023-05-15T01:52:40;63.72;;;22.55;;
31238;SDS011;17871;31.584;74.450;2023-05-15T01:55:17;52.40;;;21.98;;
31238;SDS011;17871;31.584;74.450;2023-05-15T01:57:51;64.68;;;26.98;;
31238;SDS011;17871;31.584;74.450;2023-05-15T02:00:25;65.97;;;26.85;;
31238;SDS011;17871;31.584;74.450;2023-05-15T02:02:59;70.22;;;29.15;;
31238;SDS011;17871;31.584;74.450;2023-05-15T02:05:32;72.70;;;27.73;;
31238;SDS011;17871;31.584;74.450;2023-05-15T02:08:06;68.03;;;24.20;;
31238;SDS011;17871;31.584;74.450;2023-05-15T02:10:39;61.97;;;26.00;;
31238;SDS011;17871;31.584;74.450;2023-05-15T02:13:12;59.38;;;20.83;;
31238;SDS011;17871;31.584;74.450;2023-05-15T02:15:45;37.53;;;16.75;;
31238;SDS011;17871;31.584;74.450;2023-05-15T02:18:17;62.23;;;18.50;;
31238;SDS011;17871;31.584;74.450;2023-05-15T02:20:50;42.33;;;17.27;;
31238;SDS011;17871;31.584;74.450;2023-05-15T02:23:22;37.20;;;16.75;;
31238;SDS011;17871;31.584;74.450;2023-05-15T02:26:11;54.95;;;18.27;;
31238;SDS011;17871;31.584;74.450;2023-05-15T02:28:53;60.83;;;21.05;;
31238;SDS011;17871;31.584;74.450;2023-05-15T02:34:27;39.78;;;19.92;;
31238;SDS011;17871;31.584;74.450;2023-05-15T02:37:07;46.28;;;19.65;;
31238;SDS011;17871;31.584;74.450;2023-05-15T02:39:45;31.67;;;12.65;;
31238;SDS011;17871;31.584;74.450;2023-05-15T02:42:23;40.83;;;12.02;;
31238;SDS011;17871;31.584;74.450;2023-05-15T02:44:57;33.33;;;12.35;;
31238;SDS011;17871;31.584;74.450;2023-05-15T02:47:31;31.63;;;11.93;;
31238;SDS011;17871;31.584;74.450;2023-05-15T02:50:05;37.95;;;12.63;;
31238;SDS011;17871;31.584;74.450;2023-05-15T02:52:38;46.80;;;13.57;;
31238;SDS011;17871;31.584;74.450;2023-05-15T02:55:11;42.33;;;13.88;;
31238;SDS011;17871;31.584;74.450;2023-05-15T02:57:44;45.85;;;13.18;;
31238;SDS011;17871;31.584;74.450;2023-05-15T03:00:16;32.92;;;12.82;;
31238;SDS011;17871;31.584;74.450;2023-05-15T03:02:46;32.17;;;11.30;;
31238;SDS011;17871;31.584;74.450;2023-05-15T03:05:15;39.08;;;11.82;;
31238;SDS011;17871;31.584;74.450;2023-05-15T03:07:44;39.72;;;12.45;;
31238;SDS011;17871;31.584;74.450;2023-05-15T03:10:13;29.52;;;10.45;;
31238;SDS011;17871;31.584;74.450;2023-05-15T03:12:43;48.40;;;13.02;;
31238;SDS011;17871;31.584;74.450;2023-05-15T03:15:12;38.08;;;12.18;;
31238;SDS011;17871;31.584;74.450;2023-05-15T03:17:41;37.97;;;14.63;;
31238;SDS011;17871;31.584;74.450;2023-05-15T03:20:10;47.83;;;19.20;;
31238;SDS011;17871;31.584;74.450;2023-05-15T03:22:41;50.35;;;18.23;;
31238;SDS011;17871;31.584;74.450;2023-05-15T03:25:10;94.68;;;21.20;;
31238;SDS011;17871;31.584;74.450;2023-05-15T03:27:39;69.07;;;28.38;;
31238;SDS011;17871;31.584;74.450;2023-05-15T03:30:08;73.05;;;35.72;;
31238;SDS011;17871;31.584;74.450;2023-05-15T03:32:38;81.85;;;32.53;;
31238;SDS011;17871;31.584;74.450;2023-05-15T03:35:08;92.13;;;34.28;;
31238;SDS011;17871;31.584;74.450;2023-05-15T03:37:37;78.47;;;35.65;;
31238;SDS011;17871;31.584;74.450;2023-05-15T03:40:07;62.03;;;24.13;;
31238;SDS011;17871;31.584;74.450;2023-05-15T03:42:37;67.35;;;23.33;;
31238;SDS011;17871;31.584;74.450;2023-05-15T03:45:06;244.93;;;36.63;;
31238;SDS011;17871;31.584;74.450;2023-05-15T03:47:39;51.35;;;22.63;;
31238;SDS011;17871;31.584;74.450;2023-05-15T03:50:10;186.75;;;27.63;;
31238;SDS011;17871;31.584;74.450;2023-05-15T03:52:39;62.63;;;17.38;;
31238;SDS011;17871;31.584;74.450;2023-05-15T03:55:08;58.03;;;16.42;;
31238;SDS011;17871;31.584;74.450;2023-05-15T03:57:38;42.10;;;15.00;;
31238;SDS011;17871;31.584;74.450;2023-05-15T04:00:08;47.42;;;13.35;;
31238;SDS011;17871;31.584;74.450;2023-05-15T04:02:38;50.78;;;12.70;;
31238;SDS011;17871;31.584;74.450;2023-05-15T04:05:08;38.30;;;10.93;;
31238;SDS011;17871;31.584;74.450;2023-05-15T04:07:37;32.60;;;9.00;;
31238;SDS011;17871;31.584;74.450;2023-05-15T04:10:06;26.52;;;9.43;;
31238;SDS011;17871;31.584;74.450;2023-05-15T04:12:36;35.10;;;9.98;;
31238;SDS011;17871;31.584;74.450;2023-05-15T04:17:49;36.30;;;11.75;;
31238;SDS011;17871;31.584;74.450;2023-05-15T04:20:20;47.08;;;11.88;;
31238;SDS011;17871;31.584;74.450;2023-05-15T04:22:51;33.38;;;10.77;;
31238;SDS011;17871;31.584;74.450;2023-05-15T04:25:20;54.22;;;12.82;;
31238;SDS011;17871;31.584;74.450;2023-05-15T04:27:51;68.13;;;10.23;;
31238;SDS011;17871;31.584;74.450;2023-05-15T04:30:20;45.67;;;11.20;;
31238;SDS011;17871;31.584;74.450;2023-05-15T04:32:50;45.92;;;11.60;;
31238;SDS011;17871;31.584;74.450;2023-05-15T04:35:19;70.40;;;12.63;;
31238;SDS011;17871;31.584;74.450;2023-05-15T04:37:48;59.85;;;12.23;;
31238;SDS011;17871;31.584;74.450;2023-05-15T04:40:17;28.33;;;10.32;;
31238;SDS011;17871;31.584;74.450;2023-05-15T04:42:46;36.15;;;10.18;;
31238;SDS011;17871;31.584;74.450;2023-05-15T04:45:15;28.08;;;9.98;;
31238;SDS011;17871;31.584;74.450;2023-05-15T04:47:45;23.45;;;9.13;;
31238;SDS011;17871;31.584;74.450;2023-05-15T04:50:19;45.83;;;10.32;;
31238;SDS011;17871;31.584;74.450;2023-05-15T04:52:49;36.10;;;8.40;;
31238;SDS011;17871;31.584;74.450;2023-05-15T04:55:18;24.95;;;9.40;;
31238;SDS011;17871;31.584;74.450;2023-05-15T04:57:48;44.45;;;9.43;;
31238;SDS011;17871;31.584;74.450;2023-05-15T05:00:18;47.67;;;10.07;;
31238;SDS011;17871;31.584;74.450;2023-05-15T05:14:06;40.03;;;10.55;;
31238;SDS011;17871;31.584;74.450;2023-05-15T05:16:35;46.85;;;10.88;;
31238;SDS011;17871;31.584;74.450;2023-05-15T05:19:04;36.70;;;11.75;;
31238;SDS011;17871;31.584;74.450;2023-05-15T05:21:34;43.95;;;12.77;;
31238;SDS011;17871;31.584;74.450;2023-05-15T05:24:03;40.47;;;13.63;;
31238;SDS011;17871;31.584;74.450;2023-05-15T05:26:32;26.95;;;9.35;;
31238;SDS011;17871;31.584;74.450;2023-05-15T05:29:01;38.30;;;8.57;;
31238;SDS011;17871;31.584;74.450;2023-05-15T05:31:30;25.13;;;8.23;;
31238;SDS011;17871;31.584;74.450;2023-05-15T05:34:00;23.30;;;9.68;;
31238;SDS011;17871;31.584;74.450;2023-05-15T05:36:29;48.08;;;9.80;;
31238;SDS011;17871;31.584;74.450;2023-05-15T05:38:59;35.88;;;8.80;;
31238;SDS011;17871;31.584;74.450;2023-05-15T05:41:28;21.90;;;9.23;;
31238;SDS011;17871;31.584;74.450;2023-05-15T05:43:57;25.35;;;7.45;;
31238;SDS011;17871;31.584;74.450;2023-05-15T05:46:27;16.13;;;5.75;;
31238;SDS011;17871;31.584;74.450;2023-05-15T05:48:56;31.02;;;7.07;;
31238;SDS011;17871;31.584;74.450;2023-05-15T05:51:33;25.08;;;7.05;;
31238;SDS011;17871;31.584;74.450;2023-05-15T05:54:06;14.15;;;5.95;;
31238;SDS011;17871;31.584;74.450;2023-05-15T05:56:35;24.20;;;6.40;;
31238;SDS011;17871;31.584;74.450;2023-05-15T05:59:04;45.58;;;9.93;;
31238;SDS011;17871;31.584;74.450;2023-05-15T06:01:33;26.65;;;6.43;;
31238;SDS011;17871;31.584;74.450;2023-05-15T06:04:02;36.75;;;6.38;;
31238;SDS011;17871;31.584;74.450;2023-05-15T06:06:32;52.03;;;8.73;;
31238;SDS011;17871;31.584;74.450;2023-05-15T06:09:01;27.60;;;8.32;;
31238;SDS011;17871;31.584;74.450;2023-05-15T06:11:33;25.83;;;8.07;;
31238;SDS011;17871;31.584;74.450;2023-05-15T06:14:09;39.38;;;6.07;;
31238;SDS011;17871;31.584;74.450;2023-05-15T06:16:39;19.45;;;5.95;;
31238;SDS011;17871;31.584;74.450;2023-05-15T06:19:08;14.98;;;5.65;;
31238;SDS011;17871;31.584;74.450;2023-05-15T06:21:38;14.90;;;4.43;;
31238;SDS011;17871;31.584;74.450;2023-05-15T06:24:08;14.88;;;5.45;;
31238;SDS011;17871;31.584;74.450;2023-05-15T06:26:37;21.35;;;6.13;;
31238;SDS011;17871;31.584;74.450;2023-05-15T06:29:06;17.95;;;5.15;;
31238;SDS011;17871;31.584;74.450;2023-05-15T06:31:36;22.45;;;5.65;;
31238;SDS011;17871;31.584;74.450;2023-05-15T06:34:06;16.92;;;6.05;;
31238;SDS011;17871;31.584;74.450;2023-05-15T06:36:35;16.15;;;6.47;;
31238;SDS011;17871;31.584;74.450;2023-05-15T06:39:05;26.58;;;7.20;;
31238;SDS011;17871;31.584;74.450;2023-05-15T06:41:38;28.40;;;8.63;;
31238;SDS011;17871;31.584;74.450;2023-05-15T06:44:11;29.67;;;7.57;;
31238;SDS011;17871;31.584;74.450;2023-05-15T06:46:44;69.60;;;10.27;;
31238;SDS011;17871;31.584;74.450;2023-05-15T06:49:15;32.72;;;7.20;;
31238;SDS011;17871;31.584;74.450;2023-05-15T06:51:47;17.92;;;6.18;;
31238;SDS011;17871;31.584;74.450;2023-05-15T06:54:17;18.15;;;4.55;;
31238;SDS011;17871;31.584;74.450;2023-05-15T06:56:47;32.42;;;4.53;;
31238;SDS011;17871;31.584;74.450;2023-05-15T06:59:20;26.52;;;5.65;;
31238;SDS011;17871;31.584;74.450;2023-05-15T07:01:54;20.70;;;4.43;;
31238;SDS011;17871;31.584;74.450;2023-05-15T07:04:26;27.00;;;4.63;;
31238;SDS011;17871;31.584;74.450;2023-05-15T07:06:59;28.23;;;3.80;;
31238;SDS011;17871;31.584;74.450;2023-05-15T07:09:30;12.00;;;2.50;;
31238;SDS011;17871;31.584;74.450;2023-05-15T07:12:00;11.98;;;3.78;;
31238;SDS011;17871;31.584;74.450;2023-05-15T07:14:32;10.85;;;3.97;;
31238;SDS011;17871;31.584;74.450;2023-05-15T07:17:03;10.50;;;3.90;;
31238;SDS011;17871;31.584;74.450;2023-05-15T07:19:34;8.05;;;3.97;;
31238;SDS011;17871;31.584;74.450;2023-05-15T07:22:07;20.15;;;3.35;;
31238;SDS011;17871;31.584;74.450;2023-05-15T07:24:39;16.73;;;3.20;;
31238;SDS011;17871;31.584;74.450;2023-05-15T07:27:09;33.53;;;3.83;;
31238;SDS011;17871;31.584;74.450;2023-05-15T07:29:41;29.83;;;3.60;;
31238;SDS011;17871;31.584;74.450;2023-05-15T07:32:11;16.45;;;2.28;;
31238;SDS011;17871;31.584;74.450;2023-05-15T07:34:50;5.80;;;2.25;;
31238;SDS011;17871;31.584;74.450;2023-05-15T07:37:32;17.92;;;2.65;;
31238;SDS011;17871;31.584;74.450;2023-05-15T07:40:03;17.23;;;2.60;;
31238;SDS011;17871;31.584;74.450;2023-05-15T07:42:34;14.07;;;2.90;;
31238;SDS011;17871;31.584;74.450;2023-05-15T07:45:05;15.70;;;2.47;;
31238;SDS011;17871;31.584;74.450;2023-05-15T07:47:43;7.93;;;2.63;;
31238;SDS011;17871;31.584;74.450;2023-05-15T07:50:33;7.47;;;2.08;;
31238;SDS011;17871;31.584;74.450;2023-05-15T07:53:07;16.35;;;2.53;;
31238;SDS011;17871;31.584;74.450;2023-05-15T07:55:37;12.52;;;2.58;;
31238;SDS011;17871;31.584;74.450;2023-05-15T07:58:09;21.20;;;3.60;;
31238;SDS011;17871;31.584;74.450;2023-05-15T08:00:39;57.65;;;4.82;;
31238;SDS011;17871;31.584;74.450;2023-05-15T08:03:10;26.85;;;3.65;;
31238;SDS011;17871;31.584;74.450;2023-05-15T08:05:41;36.38;;;4.35;;
31238;SDS011;17871;31.584;74.450;2023-05-15T08:08:13;25.70;;;3.83;;
31238;SDS011;17871;31.584;74.450;2023-05-15T08:10:50;8.30;;;2.20;;
31238;SDS011;17871;31.584;74.450;2023-05-15T08:13:31;16.13;;;3.42;;
31238;SDS011;17871;31.584;74.450;2023-05-15T08:16:03;50.38;;;5.90;;
31238;SDS011;17871;31.584;74.450;2023-05-15T08:18:35;14.38;;;4.00;;
31238;SDS011;17871;31.584;74.450;2023-05-15T08:21:14;53.28;;;6.15;;
31238;SDS011;17871;31.584;74.450;2023-05-15T08:23:44;56.25;;;5.97;;
31238;SDS011;17871;31.584;74.450;2023-05-15T08:26:14;28.48;;;4.05;;
31238;SDS011;17871;31.584;74.450;2023-05-15T08:28:46;15.75;;;3.00;;
31238;SDS011;17871;31.584;74.450;2023-05-15T08:31:17;24.90;;;3.33;;
31238;SDS011;17871;31.584;74.450;2023-05-15T08:33:47;72.40;;;6.28;;
31238;SDS011;17871;31.584;74.450;2023-05-15T08:36:20;18.25;;;2.90;;
31238;SDS011;17871;31.584;74.450;2023-05-15T08:38:50;16.90;;;2.58;;
31238;SDS011;17871;31.584;74.450;2023-05-15T08:44:18;10.15;;;2.33;;
31238;SDS011;17871;31.584;74.450;2023-05-15T08:46:56;14.95;;;2.33;;
31238;SDS011;17871;31.584;74.450;2023-05-15T08:52:19;23.35;;;4.05;;
31238;SDS011;17871;31.584;74.450;2023-05-15T08:54:50;9.63;;;2.10;;
31238;SDS011;17871;31.584;74.450;2023-05-15T08:57:22;32.63;;;5.18;;
31238;SDS011;17871;31.584;74.450;2023-05-15T08:59:54;9.93;;;2.47;;
31238;SDS011;17871;31.584;74.450;2023-05-15T09:02:25;24.23;;;3.42;;
31238;SDS011;17871;31.584;74.450;2023-05-15T09:04:55;7.70;;;2.25;;
31238;SDS011;17871;31.584;74.450;2023-05-15T09:07:25;11.98;;;2.13;;
31238;SDS011;17871;31.584;74.450;2023-05-15T09:09:58;12.25;;;1.98;;
31238;SDS011;17871;31.584;74.450;2023-05-15T09:12:31;14.18;;;2.35;;
31238;SDS011;17871;31.584;74.450;2023-05-15T09:15:13;16.33;;;3.33;;
31238;SDS011;17871;31.584;74.450;2023-05-15T09:17:47;20.42;;;3.13;;
31238;SDS011;17871;31.584;74.450;2023-05-15T09:22:57;9.82;;;2.67;;
31238;SDS011;17871;31.584;74.450;2023-05-15T09:25:34;20.48;;;3.20;;
31238;SDS011;17871;31.584;74.450;2023-05-15T09:28:08;14.90;;;2.80;;
31238;SDS011;17871;31.584;74.450;2023-05-15T09:30:41;14.52;;;2.70;;
31238;SDS011;17871;31.584;74.450;2023-05-15T09:33:12;8.02;;;2.80;;
31238;SDS011;17871;31.584;74.450;2023-05-15T09:35:44;5.82;;;2.75;;
31238;SDS011;17871;31.584;74.450;2023-05-15T09:38:21;12.90;;;2.70;;
31238;SDS011;17871;31.584;74.450;2023-05-15T09:41:04;10.40;;;2.67;;
31238;SDS011;17871;31.584;74.450;2023-05-15T09:43:53;6.53;;;2.70;;
31238;SDS011;17871;31.584;74.450;2023-05-15T09:46:27;10.18;;;2.13;;
31238;SDS011;17871;31.584;74.450;2023-05-15T09:49:13;12.93;;;3.35;;
31238;SDS011;17871;31.584;74.450;2023-05-15T09:54:27;13.30;;;3.25;;
31238;SDS011;17871;31.584;74.450;2023-05-15T09:57:09;15.80;;;4.70;;
31238;SDS011;17871;31.584;74.450;2023-05-15T09:59:45;6.05;;;2.72;;
31238;SDS011;17871;31.584;74.450;2023-05-15T10:02:24;6.53;;;2.83;;
31238;SDS011;17871;31.584;74.450;2023-05-15T10:05:12;14.75;;;2.80;;
31238;SDS011;17871;31.584;74.450;2023-05-15T10:08:09;9.38;;;2.17;;
31238;SDS011;17871;31.584;74.450;2023-05-15T10:10:58;14.10;;;3.28;;
31238;SDS011;17871;31.584;74.450;2023-05-15T10:13:41;16.65;;;3.20;;
31238;SDS011;17871;31.584;74.450;2023-05-15T10:16:18;10.32;;;2.50;;
31238;SDS011;17871;31.584;74.450;2023-05-15T10:19:08;8.25;;;2.70;;
31238;SDS011;17871;31.584;74.450;2023-05-15T10:21:57;18.95;;;2.80;;
31238;SDS011;17871;31.584;74.450;2023-05-15T10:24:39;10.57;;;3.55;;
31238;SDS011;17871;31.584;74.450;2023-05-15T10:27:29;12.38;;;3.22;;
31238;SDS011;17871;31.584;74.450;2023-05-15T10:30:10;25.63;;;4.22;;
31238;SDS011;17871;31.584;74.450;2023-05-15T10:32:57;11.68;;;4.07;;
31238;SDS011;17871;31.584;74.450;2023-05-15T10:36:13;17.23;;;4.00;;
31238;SDS011;17871;31.584;74.450;2023-05-15T10:39:16;9.07;;;3.50;;
31238;SDS011;17871;31.584;74.450;2023-05-15T10:41:49;17.38;;;4.10;;
31238;SDS011;17871;31.584;74.450;2023-05-15T10:44:33;13.15;;;4.40;;
31238;SDS011;17871;31.584;74.450;2023-05-15T10:47:30;36.15;;;5.65;;
31238;SDS011;17871;31.584;74.450;2023-05-15T10:50:06;17.13;;;4.88;;
31238;SDS011;17871;31.584;74.450;2023-05-15T10:53:15;15.02;;;4.90;;
31238;SDS011;17871;31.584;74.450;2023-05-15T10:56:14;19.38;;;5.63;;
31238;SDS011;17871;31.584;74.450;2023-05-15T10:58:50;25.45;;;5.85;;
31238;SDS011;17871;31.584;74.450;2023-05-15T11:01:43;20.00;;;6.30;;
31238;SDS011;17871;31.584;74.450;2023-05-15T11:04:34;11.35;;;5.50;;
31238;SDS011;17871;31.584;74.450;2023-05-15T11:07:24;24.67;;;7.38;;
31238;SDS011;17871;31.584;74.450;2023-05-15T11:10:41;26.42;;;8.20;;
31238;SDS011;17871;31.584;74.450;2023-05-15T11:17:25;14.13;;;5.10;;
31238;SDS011;17871;31.584;74.450;2023-05-15T11:20:07;15.70;;;4.75;;
31238;SDS011;17871;31.584;74.450;2023-05-15T11:22:57;12.52;;;4.35;;
31238;SDS011;17871;31.584;74.450;2023-05-15T11:25:34;12.15;;;4.75;;
31238;SDS011;17871;31.584;74.450;2023-05-15T11:28:20;28.55;;;6.50;;
31238;SDS011;17871;31.584;74.450;2023-05-15T11:31:05;13.73;;;4.18;;
31238;SDS011;17871;31.584;74.450;2023-05-15T11:34:07;10.17;;;4.20;;
31238;SDS011;17871;31.584;74.450;2023-05-15T11:40:00;12.30;;;3.63;;
31238;SDS011;17871;31.584;74.450;2023-05-15T11:43:07;13.27;;;5.07;;
31238;SDS011;17871;31.584;74.450;2023-05-15T11:46:33;11.88;;;4.75;;
31238;SDS011;17871;31.584;74.450;2023-05-15T11:49:37;18.48;;;4.50;;
31238;SDS011;17871;31.584;74.450;2023-05-15T11:52:27;11.98;;;4.63;;
31238;SDS011;17871;31.584;74.450;2023-05-15T11:55:20;18.40;;;4.68;;
31238;SDS011;17871;31.584;74.450;2023-05-15T11:58:13;13.00;;;4.40;;
31238;SDS011;17871;31.584;74.450;2023-05-15T12:00:59;17.27;;;4.90;;
31238;SDS011;17871;31.584;74.450;2023-05-15T12:03:53;17.65;;;4.20;;
31238;SDS011;17871;31.584;74.450;2023-05-15T12:07:37;24.00;;;5.07;;
31238;SDS011;17871;31.584;74.450;2023-05-15T12:10:51;12.10;;;5.68;;
31238;SDS011;17871;31.584;74.450;2023-05-15T12:13:24;18.02;;;6.30;;
31238;SDS011;17871;31.584;74.450;2023-05-15T12:17:04;33.47;;;7.32;;
31238;SDS011;17871;31.584;74.450;2023-05-15T12:20:04;31.35;;;9.82;;
31238;SDS011;17871;31.584;74.450;2023-05-15T12:23:32;28.00;;;6.93;;
31238;SDS011;17871;31.584;74.450;2023-05-15T12:26:37;26.23;;;6.18;;
31238;SDS011;17871;31.584;74.450;2023-05-15T12:29:21;19.00;;;5.45;;
31238;SDS011;17871;31.584;74.450;2023-05-15T12:32:10;27.90;;;6.30;;
31238;SDS011;17871;31.584;74.450;2023-05-15T12:34:54;14.75;;;4.70;;
31238;SDS011;17871;31.584;74.450;2023-05-15T12:37:53;35.53;;;6.07;;
31238;SDS011;17871;31.584;74.450;2023-05-15T12:40:38;35.10;;;7.60;;
31238;SDS011;17871;31.584;74.450;2023-05-15T12:46:12;22.77;;;6.75;;
31238;SDS011;17871;31.584;74.450;2023-05-15T12:49:06;16.15;;;7.50;;
31238;SDS011;17871;31.584;74.450;2023-05-15T12:51:49;13.10;;;6.75;;
31238;SDS011;17871;31.584;74.450;2023-05-15T12:54:39;24.65;;;6.22;;
31238;SDS011;17871;31.584;74.450;2023-05-15T12:57:27;13.80;;;5.82;;
31238;SDS011;17871;31.584;74.450;2023-05-15T13:00:02;10.95;;;5.07;;
31238;SDS011;17871;31.584;74.450;2023-05-15T13:03:02;29.63;;;6.03;;
31238;SDS011;17871;31.584;74.450;2023-05-15T13:06:06;26.70;;;5.75;;
31238;SDS011;17871;31.584;74.450;2023-05-15T13:08:56;18.80;;;6.40;;
31238;SDS011;17871;31.584;74.450;2023-05-15T13:11:33;15.30;;;5.93;;
31238;SDS011;17871;31.584;74.450;2023-05-15T13:17:15;25.27;;;7.25;;
31238;SDS011;17871;31.584;74.450;2023-05-15T13:20:02;19.58;;;6.85;;
31238;SDS011;17871;31.584;74.450;2023-05-15T13:25:41;17.98;;;6.88;;
31238;SDS011;17871;31.584;74.450;2023-05-15T13:31:26;41.28;;;7.30;;
31238;SDS011;17871;31.584;74.450;2023-05-15T13:34:20;28.33;;;7.90;;
31238;SDS011;17871;31.584;74.450;2023-05-15T13:36:58;29.73;;;9.18;;
31238;SDS011;17871;31.584;74.450;2023-05-15T13:39:39;37.97;;;9.55;;
31238;SDS011;17871;31.584;74.450;2023-05-15T13:42:39;39.13;;;11.55;;
31238;SDS011;17871;31.584;74.450;2023-05-15T13:45:12;62.22;;;14.00;;
31238;SDS011;17871;31.584;74.450;2023-05-15T13:52:01;51.40;;;13.88;;
31238;SDS011;17871;31.584;74.450;2023-05-15T13:55:25;38.95;;;14.32;;
31238;SDS011;17871;31.584;74.450;2023-05-15T13:58:09;48.38;;;12.18;;
31238;SDS011;17871;31.584;74.450;2023-05-15T14:00:55;43.70;;;10.88;;
31238;SDS011;17871;31.584;74.450;2023-05-15T14:03:48;38.17;;;11.70;;
31238;SDS011;17871;31.584;74.450;2023-05-15T14:06:30;47.07;;;10.10;;
31238;SDS011;17871;31.584;74.450;2023-05-15T14:09:24;42.05;;;10.60;;
31238;SDS011;17871;31.584;74.450;2023-05-15T14:12:00;45.55;;;11.27;;
31238;SDS011;17871;31.584;74.450;2023-05-15T14:14:38;46.20;;;13.27;;
31238;SDS011;17871;31.584;74.450;2023-05-15T14:17:23;52.97;;;12.77;;
31238;SDS011;17871;31.584;74.450;2023-05-15T14:20:04;50.55;;;13.32;;
31238;SDS011;17871;31.584;74.450;2023-05-15T14:22:59;48.58;;;14.05;;
31238;SDS011;17871;31.584;74.450;2023-05-15T14:25:52;56.90;;;17.40;;
31238;SDS011;17871;31.584;74.450;2023-05-15T14:28:42;40.55;;;15.52;;
31238;SDS011;17871;31.584;74.450;2023-05-15T14:31:24;71.53;;;17.52;;
31238;SDS011;17871;31.584;74.450;2023-05-15T14:34:07;61.92;;;21.52;;
31238;SDS011;17871;31.584;74.450;2023-05-15T14:37:17;66.72;;;21.40;;
31238;SDS011;17871;31.584;74.450;2023-05-15T14:40:24;56.65;;;20.75;;
31238;SDS011;17871;31.584;74.450;2023-05-15T14:43:05;67.72;;;21.38;;
31238;SDS011;17871;31.584;74.450;2023-05-15T14:46:06;76.50;;;20.73;;
31238;SDS011;17871;31.584;74.450;2023-05-15T14:49:01;69.97;;;20.83;;
31238;SDS011;17871;31.584;74.450;2023-05-15T14:51:58;55.33;;;15.70;;
31238;SDS011;17871;31.584;74.450;2023-05-15T14:55:05;61.17;;;15.23;;
31238;SDS011;17871;31.584;74.450;2023-05-15T14:57:57;42.35;;;16.05;;
31238;SDS011;17871;31.584;74.450;2023-05-15T15:00:57;46.35;;;13.38;;
31238;SDS011;17871;31.584;74.450;2023-05-15T15:03:53;54.97;;;13.48;;
31238;SDS011;17871;31.584;74.450;2023-05-15T15:06:47;42.97;;;15.07;;
31238;SDS011;17871;31.584;74.450;2023-05-15T15:09:55;66.53;;;16.13;;
31238;SDS011;17871;31.584;74.450;2023-05-15T15:12:35;51.17;;;16.50;;
31238;SDS011;17871;31.584;74.450;2023-05-15T15:15:32;37.15;;;14.23;;
31238;SDS011;17871;31.584;74.450;2023-05-15T15:18:37;55.78;;;15.07;;
31238;SDS011;17871;31.584;74.450;2023-05-15T15:21:11;47.90;;;15.93;;
31238;SDS011;17871;31.584;74.450;2023-05-15T15:24:23;47.60;;;17.67;;
31238;SDS011;17871;31.584;74.450;2023-05-15T15:27:19;39.33;;;16.33;;
31238;SDS011;17871;31.584;74.450;2023-05-15T15:30:09;44.83;;;15.32;;
31238;SDS011;17871;31.584;74.450;2023-05-15T15:33:16;58.92;;;15.02;;
31238;SDS011;17871;31.584;74.450;2023-05-15T15:36:12;42.47;;;14.73;;
31238;SDS011;17871;31.584;74.450;2023-05-15T15:39:02;45.85;;;15.95;;
31238;SDS011;17871;31.584;74.450;2023-05-15T15:42:06;44.13;;;16.05;;
31238;SDS011;17871;31.584;74.450;2023-05-15T15:44:47;36.35;;;15.38;;
31238;SDS011;17871;31.584;74.450;2023-05-15T15:47:52;75.60;;;38.97;;
31238;SDS011;17871;31.584;74.450;2023-05-15T15:50:45;74.28;;;40.17;;
31238;SDS011;17871;31.584;74.450;2023-05-15T15:53:58;53.60;;;20.30;;
31238;SDS011;17871;31.584;74.450;2023-05-15T15:56:39;43.65;;;16.23;;
31238;SDS011;17871;31.584;74.450;2023-05-15T16:00:04;56.65;;;16.63;;
31238;SDS011;17871;31.584;74.450;2023-05-15T16:02:51;59.92;;;18.00;;
31238;SDS011;17871;31.584;74.450;2023-05-15T16:05:49;50.33;;;16.45;;
31238;SDS011;17871;31.584;74.450;2023-05-15T16:08:49;46.83;;;15.88;;
31238;SDS011;17871;31.584;74.450;2023-05-15T16:12:07;46.88;;;17.40;;
31238;SDS011;17871;31.584;74.450;2023-05-15T16:14:52;35.70;;;16.50;;
31238;SDS011;17871;31.584;74.450;2023-05-15T16:17:43;47.00;;;16.02;;
31238;SDS011;17871;31.584;74.450;2023-05-15T16:20:36;35.70;;;14.55;;
31238;SDS011;17871;31.584;74.450;2023-05-15T16:23:25;48.17;;;14.45;;
31238;SDS011;17871;31.584;74.450;2023-05-15T16:32:22;52.63;;;23.42;;